| time (UTC) | temp F | wind direction | speed knots | gust knots | rain 1hr in | rain 24hr in | rain mn in | humidity % | barometer mb |
| 20260510204531 | 61 | 292 | 4.3 | 10.4 | 0.00 | 0.11 | 0.10 | 43 | 1013.1 |
| 20260510203027 | 61 | 253 | 3.5 | 9.6 | 0.00 | 0.11 | 0.10 | 43 | 1013.3 |
| 20260510201524 | 61 | 23 | 5.2 | 14.8 | 0.00 | 0.12 | 0.10 | 46 | 1013.3 |
| 20260510200020 | 60 | 256 | 2.6 | 10.4 | 0.00 | 0.12 | 0.10 | 52 | 1013.3 |
| 20260510194516 | 60 | 194 | 4.3 | 10.4 | 0.00 | 0.12 | 0.10 | 52 | 1013.3 |
| 20260510193011 | 59 | 301 | 1.7 | 6.1 | 0.00 | 0.12 | 0.10 | 58 | 1013.3 |
| 20260510191510 | 59 | 251 | 0.9 | 8.7 | 0.00 | 0.12 | 0.10 | 59 | 1013.4 |
| 20260510190004 | 59 | 59 | 1.7 | 6.1 | 0.00 | 0.12 | 0.10 | 59 | 1013.5 |
| 20260510184501 | 58 | 276 | 5.2 | 9.6 | 0.00 | 0.12 | 0.10 | 62 | 1013.6 |
| 20260510183058 | 57 | 135 | 3.5 | 7.8 | 0.00 | 0.12 | 0.10 | 64 | 1013.7 |
| 20260510181603 | 57 | 257 | 1.7 | 8.7 | 0.00 | 0.14 | 0.10 | 65 | 1013.7 |
| 20260510180019 | 55 | 131 | 2.6 | 7.0 | 0.01 | 0.14 | 0.10 | 68 | 1013.8 |
| 20260510174519 | 54 | 155 | 0.9 | 6.1 | 0.05 | 0.14 | 0.10 | 72 | 1013.9 |
| 20260510173015 | 53 | 144 | 1.7 | 7.0 | 0.06 | 0.14 | 0.10 | 74 | 1014.0 |
| 20260510171513 | 52 | 157 | 2.6 | 6.1 | 0.07 | 0.14 | 0.10 | 75 | 1014.3 |
| 20260510170019 | 51 | 156 | 0.9 | 5.2 | 0.08 | 0.13 | 0.09 | 75 | 1014.1 |
| 20260510164510 | 51 | 147 | 2.6 | 4.3 | 0.05 | 0.09 | 0.05 | 75 | 1013.9 |
| 20260510163008 | 51 | 145 | 1.7 | 6.1 | 0.04 | 0.10 | 0.04 | 74 | 1013.9 |
| 20260510161507 | 51 | 190 | 3.5 | 6.1 | 0.03 | 0.09 | 0.03 | 73 | 1013.8 |
| 20260510160005 | 52 | 167 | 3.5 | 9.6 | 0.01 | 0.07 | 0.01 | 71 | 1014.1 |
| 20260510154504 | 53 | 163 | 4.3 | 7.0 | 0.00 | 0.06 | 0.00 | 68 | 1013.8 |
| 20260510153059 | 54 | 145 | 2.6 | 6.1 | 0.00 | 0.06 | 0.00 | 67 | 1013.8 |
| 20260510151559 | 54 | 121 | 4.3 | 9.6 | 0.00 | 0.06 | 0.00 | 67 | 1013.2 |
| 20260510150058 | 55 | 165 | 7.0 | 12.2 | 0.00 | 0.06 | 0.00 | 66 | 1013.0 |
| 20260510144552 | 55 | 146 | 7.0 | 13.9 | 0.00 | 0.06 | 0.00 | 64 | 1012.7 |
| 20260510143045 | 54 | 205 | 3.5 | 11.3 | 0.00 | 0.06 | 0.00 | 67 | 1013.2 |
| 20260510141545 | 53 | 111 | 6.1 | 10.4 | 0.00 | 0.06 | 0.00 | 68 | 1013.3 |
| 20260510140035 | 51 | 145 | 4.3 | 10.4 | 0.00 | 0.06 | 0.00 | 71 | 1013.5 |
| 20260510134533 | 50 | 153 | 6.1 | 12.2 | 0.00 | 0.06 | 0.00 | 71 | 1013.3 |
| 20260510133029 | 51 | 199 | 3.5 | 10.4 | 0.00 | 0.06 | 0.00 | 71 | 1013.1 |
| 20260510131526 | 50 | 139 | 6.1 | 11.3 | 0.00 | 0.06 | 0.00 | 72 | 1012.7 |
| 20260510130039 | 49 | 120 | 6.1 | 8.7 | 0.00 | 0.06 | 0.00 | 72 | 1013.6 |
| 20260510124526 | 49 | 206 | 5.2 | 9.6 | 0.00 | 0.06 | 0.00 | 73 | 1013.4 |
| 20260510123014 | 47 | 161 | 6.1 | 10.4 | 0.00 | 0.06 | 0.00 | 74 | 1013.6 |
| 20260510121513 | 47 | 165 | 7.0 | 11.3 | 0.00 | 0.06 | 0.00 | 74 | 1013.2 |
| 20260510120025 | 47 | 155 | 8.7 | 11.3 | 0.00 | 0.06 | 0.00 | 75 | 1013.0 |
| 20260510114515 | 47 | 121 | 7.8 | 12.2 | 0.00 | 0.06 | 0.00 | 75 | 1013.0 |
| 20260510113006 | 46 | 161 | 7.0 | 12.2 | 0.00 | 0.06 | 0.00 | 75 | 1013.1 |
| 20260510111504 | 46 | 150 | 7.8 | 15.6 | 0.00 | 0.06 | 0.00 | 75 | 1012.7 |
| 20260510110007 | 46 | 109 | 9.6 | 13.0 | 0.00 | 0.06 | 0.00 | 75 | 1012.7 |
| 20260510104504 | 46 | 132 | 5.2 | 10.4 | 0.00 | 0.06 | 0.00 | 75 | 1012.6 |
| 20260510103058 | 45 | 148 | 5.2 | 10.4 | 0.00 | 0.06 | 0.00 | 76 | 1012.4 |
| 20260510101557 | 45 | 208 | 3.5 | 11.3 | 0.00 | 0.06 | 0.00 | 76 | 1012.3 |
| 20260510100101 | 45 | 157 | 8.7 | 13.0 | 0.00 | 0.06 | 0.00 | 75 | 1012.0 |
| 20260510094554 | 45 | 129 | 7.8 | 13.9 | 0.00 | 0.06 | 0.00 | 76 | 1011.6 |
| 20260510093054 | 45 | 157 | 5.2 | 12.2 | 0.00 | 0.06 | 0.00 | 76 | 1011.2 |
| 20260510091549 | 45 | 132 | 7.0 | 12.2 | 0.00 | 0.06 | 0.00 | 75 | 1011.3 |
| 20260510090048 | 45 | 157 | 7.8 | 13.9 | 0.00 | 0.06 | 0.00 | 76 | 1011.5 |
| 20260510084544 | 44 | 155 | 9.6 | 13.9 | 0.00 | 0.06 | 0.00 | 75 | 1011.9 |
| 20260510083053 | 44 | 142 | 10.4 | 15.6 | 0.00 | 0.06 | 0.00 | 75 | 1012.3 |
| 20260510081538 | 44 | 146 | 8.7 | 16.5 | 0.00 | 0.06 | 0.00 | 75 | 1011.8 |
| 20260510080037 | 44 | 136 | 11.3 | 18.2 | 0.00 | 0.06 | 0.00 | 75 | 1012.0 |
| 20260510074535 | 44 | 167 | 9.6 | 14.8 | 0.00 | 0.06 | 0.00 | 76 | 1011.7 |
| 20260510073036 | 44 | 172 | 9.6 | 17.4 | 0.00 | 0.06 | 0.00 | 76 | 1011.8 |
| 20260510073034 | 44 | 148 | 9.6 | 17.4 | 0.00 | 0.06 | 0.00 | 76 | 1011.8 |
| 20260510071531 | 44 | 148 | 8.7 | 13.0 | 0.00 | 0.06 | 0.00 | 76 | 1012.2 |
| 20260510070036 | 44 | 171 | 7.8 | 13.0 | 0.00 | 0.06 | 0.00 | 76 | 1012.2 |
| 20260510070033 | 44 | 140 | 7.8 | 13.0 | 0.00 | 0.06 | 0.00 | 76 | 1012.2 |
| 20260510064534 | 44 | 142 | 7.0 | 11.3 | 0.00 | 0.06 | 0.00 | 77 | 1012.0 |
| 20260510063025 | 43 | 122 | 7.0 | 13.0 | 0.00 | 0.06 | 0.00 | 77 | 1012.4 |
| 20260510061524 | 43 | 166 | 7.0 | 13.0 | 0.00 | 0.06 | 0.00 | 77 | 1012.4 |
| 20260510060020 | 42 | 121 | 7.8 | 13.0 | 0.00 | 0.06 | 0.00 | 77 | 1012.3 |
| 20260510054520 | 42 | 161 | 6.1 | 14.8 | 0.00 | 0.06 | 0.00 | 77 | 1012.5 |
| 20260510053024 | 42 | 146 | 7.8 | 13.9 | 0.00 | 0.06 | 0.00 | 77 | 1012.6 |
| 20260510051517 | 42 | 140 | 8.7 | 14.8 | 0.00 | 0.06 | 0.00 | 77 | 1012.9 |
| 20260510050014 | 42 | 138 | 11.3 | 15.6 | 0.00 | 0.06 | 0.00 | 77 | 1012.8 |
| 20260510044518 | 42 | 153 | 10.4 | 17.4 | 0.00 | 0.06 | 0.00 | 77 | 1012.5 |
| 20260510043016 | 42 | 131 | 9.6 | 17.4 | 0.00 | 0.06 | 0.00 | 77 | 1012.6 |
| 20260510041514 | 42 | 128 | 9.6 | 15.6 | 0.00 | 0.06 | 0.00 | 77 | 1012.7 |
| 20260510040008 | 42 | 128 | 7.8 | 14.8 | 0.00 | 0.06 | 0.00 | 77 | 1012.8 |
| 20260510034516 | 42 | 154 | 11.3 | 16.5 | 0.00 | 0.06 | 0.00 | 77 | 1012.6 |
| 20260510033005 | 42 | 107 | 8.7 | 14.8 | 0.00 | 0.06 | 0.00 | 76 | 1012.8 |
| 20260510031502 | 42 | 153 | 9.6 | 18.2 | 0.00 | 0.06 | 0.00 | 76 | 1012.8 |
| 20260510030100 | 42 | 146 | 9.6 | 20.9 | 0.00 | 0.06 | 0.00 | 76 | 1012.8 |
| 20260510024605 | 42 | 132 | 8.7 | 17.4 | 0.00 | 0.06 | 0.00 | 76 | 1013.1 |
| 20260510023056 | 42 | 139 | 9.6 | 15.6 | 0.00 | 0.06 | 0.00 | 76 | 1012.9 |
| 20260510021552 | 43 | 143 | 9.6 | 21.7 | 0.00 | 0.06 | 0.00 | 75 | 1013.3 |
| 20260510020053 | 43 | 173 | 11.3 | 16.5 | 0.00 | 0.06 | 0.00 | 75 | 1013.1 |
| 20260510014548 | 43 | 133 | 11.3 | 21.7 | 0.00 | 0.06 | 0.00 | 73 | 1013.6 |
| 20260510013043 | 43 | 145 | 9.6 | 19.1 | 0.00 | 0.06 | 0.00 | 70 | 1013.4 |
| 20260510011541 | 43 | 135 | 12.2 | 20.9 | 0.00 | 0.06 | 0.06 | 68 | 1013.2 |
| 20260510010040 | 43 | 94 | 13.0 | 20.9 | 0.00 | 0.06 | 0.06 | 68 | 1013.3 |
| 20260510004538 | 43 | 144 | 10.4 | 18.2 | 0.00 | 0.06 | 0.06 | 67 | 1013.2 |
| 20260510003041 | 43 | 120 | 10.4 | 18.2 | 0.00 | 0.06 | 0.06 | 67 | 1013.1 |
| 20260510001533 | 43 | 157 | 8.7 | 18.2 | 0.00 | 0.06 | 0.06 | 68 | 1013.1 |
| 20260510000132 | 43 | 122 | 9.6 | 18.2 | 0.00 | 0.06 | 0.06 | 67 | 1012.9 |
| 20260509234541 | 43 | 119 | 8.7 | 15.6 | 0.00 | 0.06 | 0.06 | 67 | 1012.9 |
| 20260509233031 | 44 | 139 | 12.2 | 18.2 | 0.01 | 0.06 | 0.06 | 67 | 1012.8 |
| 20260509231530 | 44 | 140 | 9.6 | 18.2 | 0.01 | 0.06 | 0.06 | 67 | 1012.6 |
| 20260509230031 | 44 | 136 | 11.3 | 15.6 | 0.01 | 0.06 | 0.06 | 68 | 1012.5 |
| 20260509224538 | 44 | 135 | 12.2 | 17.4 | 0.00 | 0.05 | 0.05 | 68 | 1012.6 |
| 20260509223025 | 44 | 151 | 9.6 | 17.4 | 0.00 | 0.05 | 0.05 | 67 | 1012.9 |
| 20260509221525 | 44 | 138 | 7.8 | 14.8 | 0.00 | 0.05 | 0.05 | 66 | 1012.9 |
| 20260509220024 | 44 | 142 | 11.3 | 18.2 | 0.00 | 0.05 | 0.05 | 66 | 1013.0 |
| 20260509214552 | 44 | 150 | 11.3 | 16.5 | 0.00 | 0.05 | 0.05 | 67 | 1013.2 |
| 20260509213054 | 43 | 140 | 7.8 | 13.9 | 0.00 | 0.05 | 0.05 | 67 | 1013.4 |
| 20260509211549 | 43 | 154 | 4.3 | 20.0 | 0.00 | 0.05 | 0.05 | 67 | 1013.3 |
| 20260509210057 | 43 | 134 | 9.6 | 14.8 | 0.00 | 0.05 | 0.05 | 67 | 1013.3 |